Airfield :
LOGIN :

Register | Disclaimer

   EN    FR    IT 

 










Legend :    VFR   Marginal VFR   IFR   Intensive IFR   Very Intensive IFR
Visi :
Ceiling :
>= 8 km
>= 3000ft
5 to 8 km
1000 to 3000 ft
1500m to 5 km
500 to 1000 ft
800 to 1500m
200 to 500 ft
< 800m
< 200 ft
Symbols :   Thunderstorms  Fog  Heavy snow  Heavy precipitations  Wind > 20 kt
SIGMETs :     Misc.  Thunderstorms  Icing  Turbulence  Mountain Waves  Volcanic Ashes







- Airport Elevation : 2625 ft
- IATA code : LEU


LESU - Aeròdrom dels Pirineus-Alt Urgell

CURRENT METAR :
  • 161400Z 20011KT 9999 SCT060 28/12 Q1021

EXPIRED METARs :
  • 161330Z 21011KT 9999 SCT060 29/12 Q1021
  • 161300Z 21011KT 9999 FEW060 28/12 Q1021
  • 161230Z 21010KT 190V250 9999 FEW060 28/12 Q1022
  • 161200Z 21007KT 170V250 9999 FEW060 28/12 Q1022
  • 161130Z 21004KT 130V300 9999 FEW060 25/12 Q1022

TAF TAF LESU
Valid from the 16 at 09:00 until the 17 at 09:00 UTC


160800Z 1609/1709 VRB04KT 9999 SCT060 TX28/1612Z TN12/1706Z
TEMPO 1612/1618 20010KT
PROB30
TEMPO 1615/1620 SHRA FEW060TCU
No reported NOTAMs for that airfield.



MET'MAP, your aeronautical weather chart ! - Copyright ORBIFLY December 2007 - Disclaimer

ORBIFLY MET'MAP TEAM :

Programming & Development : Alexandra Zaïnal
Concept & Development : Baudouin d'Aumeries
Co-Development & Prog : Marc-Olivier Méhu
Technical & hardware support : Manuel Goepfert

Contact : metmap@orbifly.com




SOURCES & CREDITS :

   NOAA